Aérodrome :
LOGIN :

S'inscrire | Disclaimer

   EN    FR    IT 

 










Légende :    VFR   VFR Marginal   IFR   IFR Intensif   IFR Très Intensif
Visi : 
Plafond : 
>= 8 km
>= 3000ft
5 à 8 km
1000 à 3000 ft
1500m à 5 km
500 à 1000 ft
800 à 1500m
200 à 500 ft
< 800m
< 200 ft
Symboles :   Orages  Brouillard  Fortes neiges  Fortes précipitations  Vent > 20 kt
SIGMETs :   Divers  Orages  Givrage  Turbulence  Onde Orograph.  Cendres Volcan.







- Altitude de l'aérodrome : 306 ft
- Code IATA : EMA
- Voir les cartes d'approche


EGNX - Nottingham East Midlands

DERNIER METAR :
  • 231850Z 16006KT 9000 NSC 11/08 Q1032

METARs EXPIRÉS :
  • 231820Z 16005KT 9000 NSC 12/09 Q1032
  • 231750Z 14006KT 8000 NSC 12/09 Q1032
  • 231720Z 19005KT 8000 NSC 13/09 Q1032
  • 231620Z 20007KT 9000 NSC 14/09 Q1032
  • 231550Z 19007KT 9000 NSC 15/09 Q1031

TAF TAF EGNX
Valide du 23 à 18h jusqu'au 24 à 18h UTC


231656Z 2318/2418 17006KT 9000 NSC
PROB30
TEMPO 2318/2321 CAVOK
BECMG 2321/2324 4500 BR
BECMG 2403/2406 1400 BKN002
PROB40 2403/2411 0300 FG VV///
BECMG 2410/2413 6000 NSW NSC
BECMG 2413/2416 CAVOK
ATIS : +44 1332 852 852 (ext 3201)
Pas de NOTAMs connus pour ce terrain.



MET'MAP, la Météo Aéronautique d'un coup d'oeil ! - Copyright ORBIFLY Décembre 2007 - Disclaimer

ORBIFLY MET'MAP TEAM :

Programmation & Développement : Alexandra Zaïnal
Conception & Développement : Baudouin d'Aumeries
Co-Programmation & Développement : Marc-Olivier Méhu
Soutien technique & logistique : Manuel Goepfert

Contact : metmap@orbifly.com




SOURCES & CREDITS :

   NOAA